Time;durP1;ratioP1;P1;durP2;ratioP2;P2;SDS_P1;SDS_P2;PMS_P1;PMS_P2;Temp;Humidity;BMP_temperature;BMP_pressure;BME280_temperature;BME280_humidity;BME280_pressure;Samples;Min_cycle;Max_cycle;Signal;HPM_P1;HPM_P2
2022/10/26 00:00:29;;;;;;;17.35;9.60;;;11.80;99.90;;;;;;4976183;28;38588;-78
2022/10/26 00:02:56;;;;;;;16.55;9.88;;;11.80;99.90;;;;;;4985804;28;39008;-78
2022/10/26 00:05:22;;;;;;;17.00;9.88;;;11.80;99.90;;;;;;4965830;28;36226;-77
2022/10/26 00:07:49;;;;;;;19.88;10.50;;;11.80;99.90;;;;;;4970154;28;37350;-78
2022/10/26 00:10:16;;;;;;;16.38;8.75;;;11.80;99.90;;;;;;4965877;28;38931;-78
2022/10/26 00:12:42;;;;;;;15.52;7.68;;;11.90;99.90;;;;;;4977704;28;39339;-78
2022/10/26 00:15:09;;;;;;;12.57;7.43;;;12.00;99.90;;;;;;4961144;28;37342;-77
2022/10/26 00:17:35;;;;;;;21.75;7.80;;;12.00;99.90;;;;;;4982215;28;38245;-77
2022/10/26 00:20:01;;;;;;;14.25;6.47;;;12.10;99.90;;;;;;4978584;28;39834;-77
2022/10/26 00:22:27;;;;;;;14.20;6.18;;;12.10;99.90;;;;;;4964638;28;37455;-77
2022/10/26 00:24:53;;;;;;;17.55;5.80;;;12.20;99.90;;;;;;4986043;28;36465;-78
2022/10/26 00:27:19;;;;;;;11.43;6.15;;;12.20;99.90;;;;;;4984873;28;39612;-78
2022/10/26 00:29:45;;;;;;;12.98;5.68;;;12.30;99.90;;;;;;4969620;28;37824;-77
2022/10/26 00:32:11;;;;;;;10.43;5.50;;;12.40;99.90;;;;;;4978877;28;38560;-77
2022/10/26 00:34:37;;;;;;;10.88;4.90;;;12.40;99.90;;;;;;4977565;28;37078;-77
2022/10/26 00:37:03;;;;;;;10.65;5.05;;;12.40;99.90;;;;;;4981625;28;37830;-78
2022/10/26 00:39:29;;;;;;;10.63;5.22;;;12.50;99.90;;;;;;4964663;28;39179;-78
2022/10/26 00:41:55;;;;;;;14.65;5.97;;;12.50;99.90;;;;;;4962027;28;38887;-78
2022/10/26 00:45:17;;;;;;;9.15;4.75;;;12.50;99.90;;;;;;4961590;28;35755;-78
2022/10/26 00:47:46;;;;;;;11.55;4.57;;;12.50;99.90;;;;;;4924582;28;48190;-77
2022/10/26 00:50:19;;;;;;;10.38;4.72;;;12.50;99.90;;;;;;4955130;28;39004;-77
2022/10/26 00:52:45;;;;;;;12.00;4.70;;;12.50;99.90;;;;;;4976754;28;36731;-77
2022/10/26 00:55:12;;;;;;;12.25;5.30;;;12.50;99.90;;;;;;4975962;28;36858;-77
2022/10/26 00:57:38;;;;;;;11.98;4.82;;;12.50;99.90;;;;;;4983222;28;39560;-77
2022/10/26 01:00:06;;;;;;;14.27;5.63;;;12.40;99.90;;;;;;4978074;28;38881;-78
2022/10/26 01:02:33;;;;;;;9.57;5.57;;;12.40;99.90;;;;;;5355916;23;38402;-77
2022/10/26 01:05:01;;;;;;;10.60;5.18;;;12.40;99.90;;;;;;4979474;28;36732;-78
2022/10/26 01:07:28;;;;;;;12.27;5.50;;;12.40;99.90;;;;;;4982631;28;40019;-78
2022/10/26 01:09:54;;;;;;;9.52;5.40;;;12.50;99.90;;;;;;4959952;28;38786;-77
2022/10/26 01:12:20;;;;;;;12.63;5.53;;;12.50;99.90;;;;;;4960195;28;39221;-78
2022/10/26 01:14:47;;;;;;;8.82;4.90;;;12.50;99.90;;;;;;4980531;28;37240;-78
2022/10/26 01:17:58;;;;;;;8.48;5.03;;;12.40;99.90;;;;;;4987242;28;38915;-78
2022/10/26 01:20:50;;;;;;;17.27;5.28;;;12.50;99.90;;;;;;4940916;28;40098;-77
2022/10/26 01:23:33;;;;;;;7.60;4.45;;;12.50;99.90;;;;;;4964543;28;40424;-78
2022/10/26 01:26:05;;;;;;;7.05;4.53;;;12.40;99.90;;;;;;4963738;28;38100;-77
2022/10/26 01:29:05;;;;;;;12.52;5.70;;;12.50;99.90;;;;;;4959854;28;46690;-78
2022/10/26 01:32:02;;;;;;;10.52;5.05;;;12.50;99.90;;;;;;4968894;28;46453;-78
2022/10/26 01:34:42;;;;;;;14.90;5.70;;;12.50;99.90;;;;;;4977883;28;49131;-78
2022/10/26 01:37:17;;;;;;;12.35;6.40;;;12.50;99.90;;;;;;4980427;28;37717;-78
2022/10/26 01:39:57;;;;;;;14.30;5.85;;;12.50;99.90;;;;;;4964546;28;38999;-78
2022/10/26 01:42:26;;;;;;;11.73;5.10;;;12.50;99.90;;;;;;4981821;28;38097;-77
2022/10/26 01:44:57;;;;;;;7.82;5.05;;;12.50;99.90;;;;;;4960837;28;37579;-79
2022/10/26 01:47:25;;;;;;;15.63;5.93;;;12.50;99.90;;;;;;4967335;28;36845;-77
2022/10/26 01:49:55;;;;;;;9.88;5.07;;;12.40;99.90;;;;;;4957502;28;39261;-77
2022/10/26 01:52:22;;;;;;;11.18;5.45;;;12.40;99.90;;;;;;4963595;28;39329;-78
2022/10/26 01:54:48;;;;;;;11.95;5.75;;;12.40;99.90;;;;;;4964888;28;37343;-78
2022/10/26 01:57:19;;;;;;;14.55;5.18;;;12.40;99.90;;;;;;4983281;28;37324;-78
2022/10/26 02:00:11;;;;;;;9.68;5.63;;;12.30;99.90;;;;;;4959247;28;38848;-78
2022/10/26 02:02:42;;;;;;;15.55;7.35;;;12.20;99.90;;;;;;4970617;28;47470;-78
2022/10/26 02:05:28;;;;;;;15.23;6.85;;;12.20;99.90;;;;;;4958990;28;37336;-78
2022/10/26 02:08:12;;;;;;;13.65;5.93;;;12.20;99.90;;;;;;4976919;28;36691;-78
2022/10/26 02:11:03;;;;;;;10.95;5.93;;;12.20;99.90;;;;;;4963809;28;47177;-78
2022/10/26 02:13:32;;;;;;;12.70;6.47;;;12.10;99.90;;;;;;4980015;28;47725;-78
2022/10/26 02:16:42;;;;;;;12.15;7.15;;;12.10;99.90;;;;;;4957325;28;37240;-78
2022/10/26 02:19:32;;;;;;;13.70;5.90;;;12.00;99.90;;;;;;4926645;29;48956;-78
2022/10/26 02:22:17;;;;;;;19.98;7.38;;;12.10;99.90;;;;;;4956516;28;40694;-78
2022/10/26 02:24:44;;;;;;;13.90;6.28;;;12.00;99.90;;;;;;4953578;28;47176;-77
2022/10/26 02:27:17;;;;;;;9.82;5.57;;;12.00;99.90;;;;;;4980176;28;38476;-77
2022/10/26 02:29:44;;;;;;;16.92;6.55;;;12.00;99.90;;;;;;4984391;28;37730;-78
2022/10/26 02:32:11;;;;;;;12.77;6.13;;;12.00;99.90;;;;;;4957294;28;40367;-78
2022/10/26 02:34:41;;;;;;;12.48;6.95;;;12.00;99.90;;;;;;4977208;28;39684;-78
2022/10/26 02:37:08;;;;;;;10.75;6.25;;;12.00;99.90;;;;;;4978115;28;39519;-78
2022/10/26 02:39:38;;;;;;;9.70;6.03;;;12.00;99.90;;;;;;4971617;28;37401;-78
2022/10/26 02:42:07;;;;;;;18.15;8.18;;;12.00;99.90;;;;;;4953396;28;38312;-78
2022/10/26 02:44:51;;;;;;;10.55;6.90;;;11.90;99.90;;;;;;4954912;28;38982;-78
2022/10/26 02:47:19;;;;;;;13.70;6.25;;;12.00;99.90;;;;;;4967296;28;39472;-77
2022/10/26 02:49:46;;;;;;;17.55;8.38;;;12.10;99.90;;;;;;4971488;28;38075;-78
2022/10/26 02:52:39;;;;;;;12.25;6.07;;;12.10;99.90;;;;;;4952805;28;37923;-79
2022/10/26 02:55:10;;;;;;;15.07;7.20;;;12.10;99.90;;;;;;4951195;28;39191;-79
2022/10/26 02:57:43;;;;;;;13.13;7.60;;;12.10;99.90;;;;;;4971794;28;37209;-79
2022/10/26 03:00:16;;;;;;;8.15;6.47;;;12.20;99.90;;;;;;4975848;28;37319;-78
2022/10/26 03:02:57;;;;;;;16.23;7.35;;;12.10;99.90;;;;;;4956764;28;47493;-78
2022/10/26 03:05:26;;;;;;;12.95;7.18;;;12.10;99.90;;;;;;4968833;28;39675;-78
2022/10/26 03:07:53;;;;;;;11.20;7.13;;;12.10;99.90;;;;;;4958835;28;39754;-79
2022/10/26 03:10:19;;;;;;;12.13;6.38;;;12.20;99.90;;;;;;4970967;28;37294;-78
2022/10/26 03:12:46;;;;;;;16.70;7.45;;;12.20;99.90;;;;;;4954709;28;40191;-78
2022/10/26 03:15:12;;;;;;;12.30;6.53;;;12.20;99.90;;;;;;4957435;28;38984;-78
2022/10/26 03:17:38;;;;;;;11.15;6.82;;;12.20;99.90;;;;;;4962571;28;38724;-78
2022/10/26 03:20:05;;;;;;;14.05;6.32;;;12.30;99.90;;;;;;4964368;28;38007;-79
2022/10/26 03:22:31;;;;;;;15.55;7.10;;;12.30;99.90;;;;;;4975650;28;39899;-78
2022/10/26 03:24:57;;;;;;;14.20;6.97;;;12.30;99.90;;;;;;4959644;28;39371;-78
2022/10/26 03:27:25;;;;;;;15.13;6.18;;;12.30;99.90;;;;;;4972189;28;39385;-78
2022/10/26 03:29:52;;;;;;;14.73;7.60;;;12.20;99.90;;;;;;4955577;28;37836;-78
2022/10/26 03:32:19;;;;;;;11.02;6.90;;;12.30;99.90;;;;;;4955293;28;38740;-78
2022/10/26 03:34:45;;;;;;;10.85;6.38;;;12.20;99.90;;;;;;4965643;28;40157;-79
2022/10/26 03:37:11;;;;;;;15.77;7.82;;;12.20;99.90;;;;;;4970285;28;38825;-78
2022/10/26 03:39:37;;;;;;;15.15;6.82;;;12.20;99.90;;;;;;4968935;28;37511;-78
2022/10/26 03:42:03;;;;;;;8.45;5.25;;;12.30;99.90;;;;;;4962201;28;37561;-79
2022/10/26 03:44:30;;;;;;;15.88;6.43;;;12.30;99.90;;;;;;4960299;28;37623;-78
2022/10/26 03:46:56;;;;;;;15.27;6.75;;;12.30;99.90;;;;;;4979331;28;39983;-77
2022/10/26 03:49:22;;;;;;;12.68;5.60;;;12.30;99.90;;;;;;4957934;28;38127;-78
2022/10/26 03:51:48;;;;;;;10.13;6.00;;;12.40;99.90;;;;;;4963172;28;37507;-78
2022/10/26 03:54:14;;;;;;;11.00;5.63;;;12.40;99.90;;;;;;4965244;28;38287;-78
2022/10/26 03:56:40;;;;;;;14.98;6.63;;;12.40;99.90;;;;;;4963748;28;38093;-77
2022/10/26 03:59:06;;;;;;;10.98;5.22;;;12.40;99.90;;;;;;4966765;28;36381;-78
2022/10/26 04:01:32;;;;;;;12.77;6.05;;;12.50;99.90;;;;;;4978575;28;38715;-78
2022/10/26 04:03:58;;;;;;;13.23;5.93;;;12.50;99.90;;;;;;4974447;28;39829;-78
2022/10/26 04:06:24;;;;;;;11.82;5.47;;;12.60;99.90;;;;;;4970336;28;38489;-77
2022/10/26 04:08:52;;;;;;;18.83;6.65;;;12.60;99.90;;;;;;4960285;28;39034;-79
2022/10/26 04:11:18;;;;;;;16.55;6.03;;;12.60;99.90;;;;;;4950201;28;40155;-78
2022/10/26 04:13:47;;;;;;;11.45;6.65;;;12.70;99.90;;;;;;4971550;28;40038;-78
2022/10/26 04:16:13;;;;;;;11.65;5.15;;;12.70;99.90;;;;;;4956535;28;38698;-79
2022/10/26 04:18:39;;;;;;;10.23;6.05;;;12.70;99.90;;;;;;4954474;28;38836;-78
2022/10/26 04:21:05;;;;;;;16.27;7.32;;;12.70;99.90;;;;;;4977176;28;38209;-77
2022/10/26 04:23:31;;;;;;;14.07;5.40;;;12.70;99.90;;;;;;4957374;28;47158;-78
2022/10/26 04:25:57;;;;;;;10.10;5.88;;;12.70;99.90;;;;;;4975334;28;38286;-78
2022/10/26 04:28:23;;;;;;;14.63;6.50;;;12.70;99.90;;;;;;4975015;28;37388;-78
2022/10/26 04:30:49;;;;;;;9.70;6.07;;;12.70;99.90;;;;;;4975723;28;39857;-77
2022/10/26 04:33:15;;;;;;;10.25;5.68;;;12.80;99.90;;;;;;4977222;28;38991;-78
2022/10/26 04:35:41;;;;;;;17.25;6.25;;;12.80;99.90;;;;;;4952392;28;38853;-78
2022/10/26 04:38:09;;;;;;;13.20;6.18;;;12.80;99.90;;;;;;4978752;28;38691;-78
2022/10/26 04:40:35;;;;;;;14.35;5.68;;;12.80;99.90;;;;;;4955003;28;39594;-78
2022/10/26 04:43:01;;;;;;;9.55;5.00;;;12.80;99.90;;;;;;4954864;28;38480;-78
2022/10/26 04:45:29;;;;;;;11.60;5.25;;;12.80;99.90;;;;;;4976495;28;39240;-78
2022/10/26 04:48:10;;;;;;;13.80;5.43;;;12.80;99.90;;;;;;4954433;28;37645;-78
2022/10/26 04:50:37;;;;;;;7.20;4.80;;;12.90;99.90;;;;;;4973784;28;48527;-78
2022/10/26 04:53:04;;;;;;;11.10;5.45;;;12.90;99.90;;;;;;4959468;28;37433;-78
2022/10/26 04:55:31;;;;;;;13.90;5.35;;;12.90;99.90;;;;;;4969007;28;39740;-78
2022/10/26 04:57:57;;;;;;;9.38;5.20;;;12.90;99.90;;;;;;4961063;28;37897;-79
2022/10/26 05:00:23;;;;;;;13.65;5.35;;;12.90;99.90;;;;;;4960287;28;39090;-79
2022/10/26 05:02:49;;;;;;;12.40;5.32;;;13.00;99.90;;;;;;4961378;28;40647;-78
2022/10/26 05:05:15;;;;;;;11.48;5.20;;;13.00;99.90;;;;;;4960691;28;38581;-78
2022/10/26 05:07:41;;;;;;;12.98;5.07;;;13.00;99.90;;;;;;4954497;28;37998;-78
2022/10/26 05:10:08;;;;;;;12.27;4.95;;;13.00;99.90;;;;;;4980477;28;38390;-79
2022/10/26 05:12:35;;;;;;;12.65;5.45;;;13.00;99.90;;;;;;4979718;28;40043;-79
2022/10/26 05:15:01;;;;;;;10.00;5.25;;;13.00;99.90;;;;;;4970413;28;39014;-78
2022/10/26 05:17:27;;;;;;;10.75;5.10;;;13.10;99.90;;;;;;4973637;28;37028;-78
2022/10/26 05:19:59;;;;;;;9.88;5.13;;;13.10;99.90;;;;;;4959934;28;40233;-78
2022/10/26 05:22:25;;;;;;;13.43;4.90;;;13.10;99.90;;;;;;4956728;28;39150;-78
2022/10/26 05:24:51;;;;;;;9.82;4.82;;;13.00;99.90;;;;;;4959308;28;38796;-78
2022/10/26 05:27:17;;;;;;;11.50;5.40;;;13.00;99.90;;;;;;4956393;28;37483;-78
2022/10/26 05:29:44;;;;;;;10.20;4.85;;;13.00;99.90;;;;;;4954441;28;41358;-79
2022/10/26 05:32:10;;;;;;;10.25;5.32;;;13.00;99.90;;;;;;4952662;28;39445;-78
2022/10/26 05:34:36;;;;;;;12.00;5.28;;;13.00;99.90;;;;;;4980835;28;38438;-79
2022/10/26 05:37:02;;;;;;;13.52;5.75;;;13.00;99.90;;;;;;4968366;28;38845;-79
2022/10/26 05:39:28;;;;;;;10.07;5.10;;;13.00;99.90;;;;;;4962063;28;38376;-78
2022/10/26 05:41:54;;;;;;;11.50;5.43;;;13.00;99.90;;;;;;4976809;28;39531;-79
2022/10/26 05:44:21;;;;;;;12.93;4.88;;;13.00;99.90;;;;;;4979201;28;37937;-79
2022/10/26 05:46:47;;;;;;;14.63;5.47;;;13.00;99.90;;;;;;4956288;28;39364;-78
2022/10/26 05:49:14;;;;;;;9.32;5.43;;;13.00;99.90;;;;;;4983055;28;40177;-82
2022/10/26 05:51:40;;;;;;;12.00;5.75;;;12.90;99.90;;;;;;4977479;28;39704;-79
2022/10/26 05:54:06;;;;;;;10.15;4.82;;;12.90;99.90;;;;;;4960584;28;39826;-78
2022/10/26 05:56:37;;;;;;;11.10;4.57;;;13.00;99.90;;;;;;4959057;28;38199;-79
2022/10/26 05:59:10;;;;;;;12.45;4.30;;;12.90;99.90;;;;;;4981876;28;38864;-78
2022/10/26 06:02:08;;;;;;;10.95;4.88;;;13.00;99.90;;;;;;4986614;28;39053;-78
2022/10/26 06:04:42;;;;;;;15.23;5.47;;;13.00;99.90;;;;;;4959254;28;47119;-78
2022/10/26 06:07:16;;;;;;;9.43;4.30;;;13.00;99.90;;;;;;4959723;28;38906;-78
2022/10/26 06:09:42;;;;;;;10.82;5.68;;;13.00;99.90;;;;;;4957056;28;39135;-78
2022/10/26 06:12:10;;;;;;;11.38;5.53;;;13.00;99.90;;;;;;4982245;28;39619;-78
2022/10/26 06:14:36;;;;;;;9.18;4.88;;;12.90;99.90;;;;;;4978610;28;38796;-78
2022/10/26 06:17:21;;;;;;;8.65;4.07;;;12.90;99.90;;;;;;4958757;28;37965;-78
2022/10/26 06:20:16;;;;;;;8.30;4.35;;;12.80;99.90;;;;;;4960870;28;46774;-78
2022/10/26 06:23:20;;;;;;;10.55;5.00;;;12.80;99.90;;;;;;4983992;28;49542;-79
2022/10/26 06:26:04;;;;;;;12.23;4.57;;;12.80;99.90;;;;;;4974803;28;48297;-78
2022/10/26 06:28:55;;;;;;;9.43;5.28;;;12.80;99.90;;;;;;4979473;28;49892;-78
2022/10/26 06:31:21;;;;;;;9.38;4.30;;;12.80;99.90;;;;;;4972400;28;38856;-78
2022/10/26 06:33:47;;;;;;;11.45;4.25;;;12.80;99.90;;;;;;4986637;28;38607;-79
2022/10/26 06:36:23;;;;;;;13.15;4.40;;;12.70;99.90;;;;;;4985202;28;37710;-78
2022/10/26 06:39:05;;;;;;;9.40;3.78;;;12.70;99.90;;;;;;4955797;28;38602;-78
2022/10/26 06:41:33;;;;;;;9.52;4.65;;;12.70;99.90;;;;;;4959814;28;46082;-78
2022/10/26 06:43:59;;;;;;;14.02;4.63;;;12.70;99.90;;;;;;4975779;28;39310;-78
2022/10/26 06:46:42;;;;;;;11.43;4.28;;;12.70;99.90;;;;;;4962217;28;41869;-78
2022/10/26 06:49:18;;;;;;;14.48;4.25;;;12.80;99.90;;;;;;4965828;28;39153;-78
2022/10/26 06:52:14;;;;;;;12.82;4.53;;;12.90;99.90;;;;;;4972109;28;39573;-78
2022/10/26 06:54:51;;;;;;;7.25;3.53;;;12.90;99.90;;;;;;4967281;28;46633;-78
2022/10/26 06:57:22;;;;;;;9.73;4.28;;;12.90;99.90;;;;;;4980715;28;38428;-78
2022/10/26 07:00:18;;;;;;;9.63;4.20;;;12.90;99.90;;;;;;4966363;28;36312;-78
2022/10/26 07:02:45;;;;;;;12.25;4.68;;;12.80;99.90;;;;;;4961988;28;47079;-79
2022/10/26 07:05:14;;;;;;;13.13;4.15;;;12.90;99.90;;;;;;4965719;28;38709;-80
2022/10/26 07:07:45;;;;;;;7.05;3.65;;;12.90;99.90;;;;;;4967551;28;39167;-79
2022/10/26 07:10:13;;;;;;;8.93;4.05;;;13.00;99.90;;;;;;4962739;28;37908;-78
2022/10/26 07:12:39;;;;;;;10.45;3.92;;;13.10;99.90;;;;;;4965434;28;40257;-78
2022/10/26 07:15:07;;;;;;;9.45;3.83;;;13.20;99.90;;;;;;4962519;28;39411;-78
2022/10/26 07:17:47;;;;;;;9.93;3.30;;;13.30;99.90;;;;;;4983871;28;38327;-78
2022/10/26 07:20:16;;;;;;;9.95;3.45;;;13.30;99.90;;;;;;4993903;28;38612;-78
2022/10/26 07:22:42;;;;;;;10.25;3.35;;;13.50;99.90;;;;;;4962495;28;38949;-78
2022/10/26 07:25:08;;;;;;;9.00;3.83;;;13.50;99.90;;;;;;4970802;28;39091;-80
2022/10/26 07:27:35;;;;;;;5.53;3.17;;;13.60;99.90;;;;;;4976512;28;37200;-79
2022/10/26 07:30:01;;;;;;;7.15;3.28;;;13.70;99.90;;;;;;4963840;28;37308;-78
2022/10/26 07:32:27;;;;;;;5.00;3.03;;;13.80;99.90;;;;;;4962389;28;37922;-78
2022/10/26 07:34:53;;;;;;;6.85;3.20;;;13.80;99.90;;;;;;4962998;28;39527;-78
2022/10/26 07:37:19;;;;;;;13.02;3.38;;;13.90;99.90;;;;;;4962020;28;39319;-78
2022/10/26 07:39:46;;;;;;;11.00;3.67;;;13.90;99.90;;;;;;4979424;28;38836;-78
2022/10/26 07:42:13;;;;;;;9.73;3.53;;;14.00;99.90;;;;;;4959683;28;39135;-79
2022/10/26 07:44:39;;;;;;;9.73;3.03;;;14.00;99.90;;;;;;4976875;28;38634;-78
2022/10/26 07:47:06;;;;;;;7.75;3.83;;;14.10;99.90;;;;;;4974645;28;39107;-77
2022/10/26 07:49:33;;;;;;;7.38;2.78;;;14.20;99.90;;;;;;4964212;28;37114;-77
2022/10/26 07:51:59;;;;;;;9.48;3.45;;;14.20;99.90;;;;;;4969275;28;37695;-79
2022/10/26 07:54:25;;;;;;;6.30;2.97;;;14.30;99.90;;;;;;4961038;28;40173;-78
2022/10/26 07:56:52;;;;;;;7.75;2.88;;;14.40;99.90;;;;;;4961239;28;37323;-79
2022/10/26 07:59:24;;;;;;;10.05;2.88;;;14.50;99.90;;;;;;4943742;28;35255;-78
2022/10/26 08:01:51;;;;;;;6.85;2.85;;;14.60;99.90;;;;;;4966100;28;38097;-80
2022/10/26 08:04:17;;;;;;;9.35;3.25;;;14.60;99.90;;;;;;4968529;28;37262;-80
2022/10/26 08:06:44;;;;;;;6.20;3.13;;;14.70;99.90;;;;;;4965648;28;38850;-78
2022/10/26 08:09:10;;;;;;;7.55;3.08;;;14.80;99.90;;;;;;4973426;28;36241;-79
2022/10/26 08:11:37;;;;;;;8.68;2.60;;;14.80;99.90;;;;;;4975204;28;39770;-78
2022/10/26 08:14:09;;;;;;;7.28;2.35;;;15.00;99.90;;;;;;4999329;28;38951;-80
2022/10/26 08:16:38;;;;;;;8.97;2.83;;;15.00;99.90;;;;;;4979849;28;37818;-79
2022/10/26 08:19:04;;;;;;;5.15;2.33;;;15.10;99.90;;;;;;4979747;28;36439;-79
2022/10/26 08:21:35;;;;;;;7.13;2.33;;;15.20;99.90;;;;;;4985942;28;37948;-80
2022/10/26 08:24:01;;;;;;;6.43;2.45;;;15.20;99.90;;;;;;4971779;28;39169;-79
2022/10/26 08:26:28;;;;;;;12.98;2.90;;;15.30;99.90;;;;;;4985725;28;47137;-79
2022/10/26 08:28:54;;;;;;;7.75;2.92;;;15.30;99.90;;;;;;4971454;28;39003;-80
2022/10/26 08:31:20;;;;;;;5.88;2.45;;;15.40;99.90;;;;;;4954229;28;37657;-80
2022/10/26 08:33:47;;;;;;;6.70;2.28;;;15.50;99.90;;;;;;4985418;28;39296;-80
2022/10/26 08:36:22;;;;;;;5.78;2.35;;;15.60;99.90;;;;;;4989515;28;39134;-80
2022/10/26 08:38:48;;;;;;;7.93;2.60;;;15.60;99.90;;;;;;4970004;28;37164;-79
2022/10/26 08:41:17;;;;;;;6.88;2.50;;;15.70;99.90;;;;;;4965696;28;38034;-79
2022/10/26 08:43:53;;;;;;;7.50;2.40;;;15.80;99.90;;;;;;4971228;28;38583;-80
2022/10/26 08:46:29;;;;;;;7.22;2.70;;;15.80;99.90;;;;;;4964349;28;41526;-79
2022/10/26 08:49:07;;;;;;;7.25;2.55;;;15.90;99.90;;;;;;4970536;28;36246;-79
2022/10/26 08:51:38;;;;;;;8.77;2.92;;;15.90;99.90;;;;;;4964992;28;47016;-81
2022/10/26 08:54:17;;;;;;;7.95;2.80;;;16.00;99.90;;;;;;4968380;28;37367;-79
2022/10/26 08:56:57;;;;;;;6.95;2.75;;;16.00;99.90;;;;;;4966631;28;37080;-78
2022/10/26 08:59:37;;;;;;;14.88;2.95;;;16.10;99.90;;;;;;4970119;28;36000;-78
2022/10/26 09:02:11;;;;;;;5.90;2.38;;;16.10;99.90;;;;;;4966478;28;39161;-79
2022/10/26 09:04:37;;;;;;;9.43;2.65;;;16.20;99.90;;;;;;4964482;28;38424;-79
2022/10/26 09:07:41;;;;;;;7.85;2.58;;;16.30;99.90;;;;;;4982972;28;38797;-78
2022/10/26 09:10:35;;;;;;;13.30;2.70;;;16.30;99.90;;;;;;4970649;28;36057;-78
2022/10/26 09:13:13;;;;;;;10.75;2.75;;;16.40;99.90;;;;;;4964438;28;39539;-78
2022/10/26 09:16:02;;;;;;;8.25;2.20;;;16.40;99.90;;;;;;4963037;28;46851;-80
2022/10/26 09:18:37;;;;;;;6.90;2.67;;;16.40;99.90;;;;;;4971747;28;36923;-78
2022/10/26 09:21:09;;;;;;;11.02;2.83;;;16.40;99.90;;;;;;4971043;28;36036;-79
2022/10/26 09:23:49;;;;;;;4.35;2.22;;;16.50;99.90;;;;;;4966215;28;47228;-78
2022/10/26 09:26:40;;;;;;;8.90;2.75;;;16.50;99.90;;;;;;4981535;28;40101;-78
2022/10/26 09:29:11;;;;;;;10.07;2.72;;;16.60;99.90;;;;;;4972134;28;38665;-80
2022/10/26 09:31:41;;;;;;;6.67;2.57;;;16.60;99.90;;;;;;4969024;28;37865;-79
2022/10/26 09:34:17;;;;;;;7.82;2.30;;;16.70;99.90;;;;;;5003117;28;37864;-79
2022/10/26 09:36:44;;;;;;;7.03;2.50;;;16.80;99.90;;;;;;4978820;28;39149;-79
2022/10/26 09:39:34;;;;;;;9.07;3.20;;;16.90;99.90;;;;;;5019486;23;39311;-78
2022/10/26 09:42:15;;;;;;;6.63;2.47;;;17.10;99.90;;;;;;4982522;28;36114;-78
2022/10/26 09:44:53;;;;;;;6.45;2.30;;;17.20;99.90;;;;;;4998775;28;48826;-79
2022/10/26 09:47:28;;;;;;;7.68;2.50;;;17.30;99.90;;;;;;4993513;28;37810;-78
2022/10/26 09:50:00;;;;;;;10.13;2.88;;;17.40;99.90;;;;;;5000243;28;38130;-79
2022/10/26 09:52:26;;;;;;;6.68;2.33;;;17.50;99.90;;;;;;4984685;28;36138;-79
2022/10/26 09:54:52;;;;;;;10.13;3.03;;;17.60;99.90;;;;;;4987577;28;39588;-79
2022/10/26 09:57:19;;;;;;;12.10;3.40;;;17.50;99.90;;;;;;5002951;28;40193;-79
2022/10/26 09:59:51;;;;;;;8.07;2.47;;;17.60;99.90;;;;;;4990968;28;37588;-78
2022/10/26 10:02:32;;;;;;;6.57;2.35;;;17.60;99.90;;;;;;4986443;28;36608;-78
2022/10/26 10:04:59;;;;;;;6.57;2.40;;;17.60;99.90;;;;;;5000571;28;41336;-78
2022/10/26 10:07:25;;;;;;;5.43;2.35;;;17.60;99.90;;;;;;4989414;28;37777;-79
2022/10/26 10:10:17;;;;;;;7.15;2.40;;;17.60;99.90;;;;;;4987831;28;37968;-79
2022/10/26 10:12:44;;;;;;;5.40;2.03;;;17.60;99.90;;;;;;4987716;28;47532;-80
2022/10/26 10:15:28;;;;;;;5.03;1.85;;;17.50;99.90;;;;;;4990070;28;38858;-78
2022/10/26 10:17:54;;;;;;;6.15;1.67;;;17.50;99.90;;;;;;5003047;28;38588;-79
2022/10/26 10:20:32;;;;;;;6.35;1.70;;;17.60;99.90;;;;;;4983637;28;39325;-78
2022/10/26 10:23:03;;;;;;;5.70;2.15;;;17.50;99.90;;;;;;5005764;28;37643;-78
2022/10/26 10:25:38;;;;;;;7.88;2.10;;;17.70;99.90;;;;;;4984746;28;48251;-77
2022/10/26 10:28:25;;;;;;;7.25;2.25;;;17.90;99.90;;;;;;4986995;28;37845;-76
2022/10/26 10:30:58;;;;;;;7.93;2.08;;;18.10;99.90;;;;;;4984360;28;37386;-76
2022/10/26 10:33:44;;;;;;;7.30;2.35;;;18.20;99.90;;;;;;4997137;28;38080;-77
2022/10/26 10:36:17;;;;;;;9.45;2.40;;;18.10;99.90;;;;;;4992774;28;39099;-78
2022/10/26 10:38:45;;;;;;;5.47;2.22;;;18.10;99.90;;;;;;5008573;28;40190;-78
2022/10/26 10:41:22;;;;;;;6.13;2.28;;;18.10;99.90;;;;;;4987247;28;37388;-78
2022/10/26 10:43:52;;;;;;;5.43;2.05;;;18.10;99.90;;;;;;5004657;28;37639;-78
2022/10/26 10:46:23;;;;;;;7.25;2.30;;;18.10;99.90;;;;;;5004564;28;40943;-80
2022/10/26 10:49:00;;;;;;;6.07;1.70;;;18.00;99.90;;;;;;4989170;28;37676;-77
2022/10/26 10:51:26;;;;;;;9.23;2.30;;;18.10;99.90;;;;;;5011051;28;38441;-78
2022/10/26 10:53:55;;;;;;;6.15;2.00;;;18.30;99.90;;;;;;4989812;28;37478;-79
2022/10/26 10:56:30;;;;;;;4.95;1.90;;;18.50;99.90;;;;;;5000720;28;37627;-79
2022/10/26 10:59:21;;;;;;;4.63;2.05;;;18.50;99.90;;;;;;4985952;28;38379;-78
2022/10/26 11:02:10;;;;;;;7.93;2.00;;;18.60;99.90;;;;;;4986809;28;47272;-78
2022/10/26 11:05:10;;;;;;;8.15;2.15;;;18.70;99.90;;;;;;4946883;28;47420;-78
2022/10/26 11:07:49;;;;;;;8.82;1.80;;;18.60;99.90;;;;;;4986893;28;46919;-78
2022/10/26 11:10:18;;;;;;;6.28;1.70;;;18.70;99.90;;;;;;4991201;28;38908;-80
2022/10/26 11:12:54;;;;;;;12.68;2.90;;;18.80;99.90;;;;;;5001791;28;38522;-79
2022/10/26 11:15:25;;;;;;;9.20;1.90;;;18.80;99.90;;;;;;4980593;28;37300;-79
2022/10/26 11:18:11;;;;;;;7.82;2.38;;;18.70;99.90;;;;;;5000871;28;40303;-79
2022/10/26 11:20:43;;;;;;;7.60;2.60;;;18.70;99.90;;;;;;4981773;28;47244;-78
2022/10/26 11:23:19;;;;;;;8.23;1.90;;;18.50;99.90;;;;;;4993241;28;37428;-78
2022/10/26 11:25:55;;;;;;;8.60;1.98;;;18.40;99.90;;;;;;4983968;28;35996;-78
2022/10/26 11:28:45;;;;;;;6.90;2.00;;;18.50;99.90;;;;;;4980742;28;37726;-79
2022/10/26 11:31:17;;;;;;;8.20;2.35;;;18.60;99.90;;;;;;5000587;28;39356;-78
2022/10/26 11:34:12;;;;;;;7.70;2.08;;;18.80;99.90;;;;;;4986977;28;37424;-78
2022/10/26 11:36:43;;;;;;;7.63;2.28;;;19.00;99.90;;;;;;4980200;28;47280;-79
2022/10/26 11:39:24;;;;;;;8.63;3.63;;;19.10;99.90;;;;;;5009479;28;40089;-78
2022/10/26 11:42:29;;;;;;;4.25;2.00;;;19.10;99.90;;;;;;5013060;28;38546;-78
2022/10/26 11:45:07;;;;;;;5.85;2.30;;;19.20;99.90;;;;;;5005974;28;47158;-79
2022/10/26 11:47:53;;;;;;;8.07;2.63;;;19.20;99.90;;;;;;4987474;28;47088;-79
2022/10/26 11:50:32;;;;;;;8.95;2.60;;;19.40;99.90;;;;;;5009147;28;38887;-79
2022/10/26 11:53:04;;;;;;;5.63;2.35;;;19.30;99.90;;;;;;4995798;28;40250;-78
2022/10/26 11:55:30;;;;;;;9.05;2.50;;;19.30;99.90;;;;;;4996722;28;47134;-78
2022/10/26 11:57:57;;;;;;;10.43;2.38;;;19.10;99.90;;;;;;4990985;28;36511;-79
2022/10/26 12:00:25;;;;;;;6.97;2.30;;;19.20;99.90;;;;;;5015821;28;39535;-79
2022/10/26 12:02:59;;;;;;;10.75;2.92;;;19.20;99.90;;;;;;5005818;28;38790;-79
2022/10/26 12:05:47;;;;;;;5.35;2.35;;;19.30;99.90;;;;;;4995738;28;37145;-78
2022/10/26 12:08:23;;;;;;;9.25;2.75;;;19.40;99.90;;;;;;4990604;28;35922;-78
2022/10/26 12:11:00;;;;;;;8.60;2.63;;;19.50;99.90;;;;;;4991833;28;41953;-78
2022/10/26 12:13:33;;;;;;;6.55;1.90;;;19.50;99.90;;;;;;5009479;28;38745;-78
2022/10/26 12:16:11;;;;;;;7.78;2.40;;;19.50;99.90;;;;;;4994193;28;38077;-78
2022/10/26 12:18:47;;;;;;;6.47;2.88;;;19.40;99.90;;;;;;5009438;28;50252;-77
2022/10/26 12:21:14;;;;;;;10.73;2.60;;;19.50;99.90;;;;;;4992784;28;38101;-78
2022/10/26 12:23:57;;;;;;;7.35;2.60;;;19.60;99.90;;;;;;5017463;28;38941;-77
2022/10/26 12:26:23;;;;;;;8.38;2.67;;;19.70;99.90;;;;;;4990996;28;38536;-76
2022/10/26 12:29:01;;;;;;;15.75;2.78;;;19.60;99.90;;;;;;4988536;28;37273;-78
2022/10/26 12:31:36;;;;;;;8.95;2.72;;;19.50;99.90;;;;;;4992324;28;38753;-77
2022/10/26 12:34:09;;;;;;;7.80;2.28;;;19.70;99.90;;;;;;4997478;28;38028;-76
2022/10/26 12:36:53;;;;;;;;;;;19.80;99.90;;;;;;4997240;28;37187;-77
2022/10/26 12:39:34;;;;;;;8.90;2.42;;;19.70;99.90;;;;;;5021440;28;38326;-77
2022/10/26 12:42:03;;;;;;;9.50;3.05;;;19.60;99.90;;;;;;4994041;28;39045;-78
2022/10/26 12:44:59;;;;;;;5.45;2.45;;;19.70;99.90;;;;;;4992066;28;47168;-78
2022/10/26 12:47:28;;;;;;;8.38;2.20;;;19.90;99.90;;;;;;5005270;28;38960;-79
2022/10/26 12:50:00;;;;;;;5.65;1.90;;;19.90;99.90;;;;;;5013588;28;36217;-78
2022/10/26 12:52:51;;;;;;;4.88;1.60;;;19.90;99.90;;;;;;5014525;28;38848;-78
2022/10/26 12:55:27;;;;;;;9.35;2.22;;;19.70;99.90;;;;;;5016686;28;39540;-78
2022/10/26 12:58:04;;;;;;;6.22;1.83;;;19.50;99.90;;;;;;5013501;28;38677;-78
2022/10/26 13:00:33;;;;;;;9.32;2.17;;;19.60;99.90;;;;;;5011345;28;48543;-78
2022/10/26 13:03:22;;;;;;;6.80;1.73;;;19.70;99.90;;;;;;4990763;28;37900;-78
2022/10/26 13:06:04;;;;;;;6.53;1.85;;;19.70;99.90;;;;;;4991652;28;47354;-78
2022/10/26 13:08:54;;;;;;;6.57;1.73;;;19.70;99.90;;;;;;5012100;28;48746;-78
2022/10/26 13:11:27;;;;;;;5.20;1.63;;;20.00;99.90;;;;;;5014798;28;37183;-79